Time;durP1;ratioP1;P1;durP2;ratioP2;P2;SDS_P1;SDS_P2;PMS_P1;PMS_P2;Temp;Humidity;BMP_temperature;BMP_pressure;BME280_temperature;BME280_humidity;BME280_pressure;Samples;Min_cycle;Max_cycle;Signal;HPM_P1;HPM_P2
2023/09/15 00:00:53;;;;;;;6.97;3.78;;;13.20;99.90;;;;;;10477310;28;20692;-82
2023/09/15 00:05:55;;;;;;;3.90;3.33;;;13.10;99.90;;;;;;10495113;28;20252;-82
2023/09/15 00:10:58;;;;;;;5.28;3.00;;;13.10;99.90;;;;;;10453417;28;20222;-82
2023/09/15 00:16:00;;;;;;;5.63;3.67;;;13.10;99.90;;;;;;10436067;28;20272;-82
2023/09/15 00:21:05;;;;;;;7.85;4.07;;;13.10;99.90;;;;;;10453284;28;20323;-82
2023/09/15 00:26:07;;;;;;;3.30;3.00;;;13.10;99.90;;;;;;10478838;28;20229;-82
2023/09/15 00:31:10;;;;;;;5.80;3.33;;;13.20;99.90;;;;;;10476773;28;20694;-82
2023/09/15 00:36:13;;;;;;;9.45;3.25;;;13.30;99.90;;;;;;10490344;28;20230;-83
2023/09/15 00:41:17;;;;;;;5.18;3.65;;;13.40;99.90;;;;;;10434573;28;20263;-83
2023/09/15 00:46:20;;;;;;;3.78;3.40;;;13.50;99.90;;;;;;10467542;28;20206;-82
2023/09/15 00:51:26;;;;;;;5.28;3.10;;;13.60;99.90;;;;;;10493553;28;20203;-83
2023/09/15 00:56:28;;;;;;;4.95;2.92;;;13.60;99.90;;;;;;10458784;28;20214;-83
2023/09/15 01:01:31;;;;;;;4.07;3.10;;;13.60;99.90;;;;;;10474931;28;20265;-83
2023/09/15 01:06:37;;;;;;;6.15;3.15;;;13.60;99.90;;;;;;10492604;28;20280;-82
2023/09/15 01:11:40;;;;;;;2.97;2.67;;;13.70;99.90;;;;;;10492050;28;20677;-82
2023/09/15 01:16:48;;;;;;;4.43;2.85;;;13.70;99.90;;;;;;10474077;28;20241;-83
2023/09/15 01:22:13;;;;;;;6.28;3.08;;;13.60;99.90;;;;;;10483348;28;20258;-82
2023/09/15 01:27:51;;;;;;;5.30;3.13;;;13.60;99.90;;;;;;10450410;28;20276;-83
2023/09/15 01:32:57;;;;;;;6.10;3.20;;;13.70;99.90;;;;;;10450408;28;20245;-82
2023/09/15 01:38:00;;;;;;;4.47;2.47;;;13.70;99.90;;;;;;10450387;28;20553;-82
2023/09/15 01:43:03;;;;;;;5.95;2.88;;;13.70;99.90;;;;;;10416089;28;20712;-83
2023/09/15 01:48:07;;;;;;;4.03;2.33;;;13.70;99.90;;;;;;10415651;28;20202;-82
2023/09/15 01:53:09;;;;;;;5.15;3.00;;;13.70;99.90;;;;;;10445107;28;20616;-82
2023/09/15 01:58:13;;;;;;;4.05;2.88;;;13.70;99.90;;;;;;10471547;28;20242;-82
2023/09/15 02:03:16;;;;;;;5.45;2.10;;;13.80;99.90;;;;;;10471434;28;20303;-82
2023/09/15 02:08:19;;;;;;;3.42;2.22;;;13.80;99.90;;;;;;10491199;28;20230;-83
2023/09/15 02:13:22;;;;;;;4.95;2.38;;;13.80;99.90;;;;;;10456795;28;20239;-82
2023/09/15 02:18:25;;;;;;;4.88;2.20;;;13.70;99.90;;;;;;10489522;28;20242;-83
2023/09/15 02:23:27;;;;;;;5.18;2.50;;;13.60;99.90;;;;;;10472345;28;20210;-82
2023/09/15 02:28:31;;;;;;;4.72;2.15;;;13.70;99.90;;;;;;10486791;28;20253;-82
2023/09/15 02:33:36;;;;;;;4.43;1.90;;;13.60;99.90;;;;;;10472011;28;20682;-83
2023/09/15 02:38:40;;;;;;;4.13;2.10;;;13.50;99.90;;;;;;10490453;28;20264;-83
2023/09/15 02:43:45;;;;;;;2.90;1.90;;;13.40;99.90;;;;;;10513232;28;20256;-82
2023/09/15 02:48:49;;;;;;;2.30;1.58;;;13.40;99.90;;;;;;10465747;28;20263;-83
2023/09/15 02:53:52;;;;;;;4.93;2.17;;;13.30;99.90;;;;;;10438022;28;20243;-83
2023/09/15 02:58:56;;;;;;;3.30;2.30;;;13.30;99.90;;;;;;10479272;28;20258;-82
2023/09/15 03:03:59;;;;;;;6.72;2.25;;;13.30;99.90;;;;;;10463087;28;20234;-82
2023/09/15 03:09:03;;;;;;;3.63;2.30;;;13.20;99.90;;;;;;10479153;28;20210;-83
2023/09/15 03:14:09;;;;;;;4.85;1.90;;;13.30;99.90;;;;;;10477967;28;20630;-83
2023/09/15 03:19:12;;;;;;;3.38;2.03;;;13.30;99.90;;;;;;10461274;28;20628;-82
2023/09/15 03:24:15;;;;;;;2.30;1.88;;;13.20;99.90;;;;;;10477410;28;20233;-82
2023/09/15 03:29:17;;;;;;;3.67;2.10;;;13.10;99.90;;;;;;10459366;28;20783;-82
2023/09/15 03:34:20;;;;;;;3.92;2.50;;;12.90;99.90;;;;;;10454972;28;20235;-82
2023/09/15 03:39:24;;;;;;;4.78;2.10;;;12.70;99.90;;;;;;10467516;28;20250;-82
2023/09/15 03:44:27;;;;;;;3.55;2.10;;;;;;;;;;10474497;28;20206;-82
2023/09/15 03:49:30;;;;;;;4.28;2.55;;;12.40;99.90;;;;;;10476085;28;20292;-82
2023/09/15 03:54:37;;;;;;;2.47;1.88;;;12.30;99.90;;;;;;10477241;28;20237;-82
2023/09/15 03:59:40;;;;;;;3.53;2.25;;;12.20;99.90;;;;;;10456783;28;20700;-82
2023/09/15 04:04:42;;;;;;;2.58;2.38;;;12.20;99.90;;;;;;10454042;28;20281;-82
2023/09/15 04:09:45;;;;;;;2.80;1.88;;;12.10;99.90;;;;;;10455573;28;20206;-83
2023/09/15 04:14:47;;;;;;;3.03;2.13;;;12.10;99.90;;;;;;10475195;28;20865;-82
2023/09/15 04:19:50;;;;;;;5.47;2.58;;;12.10;99.90;;;;;;10476189;28;20254;-82
2023/09/15 04:24:53;;;;;;;2.92;2.10;;;12.20;99.90;;;;;;10494024;28;20313;-82
2023/09/15 04:29:56;;;;;;;3.28;1.83;;;12.30;99.90;;;;;;10473273;28;20626;-82
2023/09/15 04:35:05;;;;;;;5.38;2.17;;;12.30;99.90;;;;;;10468082;28;20343;-82
2023/09/15 04:40:10;;;;;;;5.38;2.70;;;12.40;99.90;;;;;;10474128;28;20367;-82
2023/09/15 04:45:12;;;;;;;6.57;2.63;;;12.70;99.90;;;;;;10473335;28;20288;-82
2023/09/15 04:50:15;;;;;;;3.65;1.77;;;12.90;99.90;;;;;;10446475;28;20228;-82
2023/09/15 04:55:19;;;;;;;3.28;2.30;;;13.10;99.90;;;;;;10473948;28;20303;-82
2023/09/15 05:00:25;;;;;;;6.07;2.33;;;13.20;99.90;;;;;;10491821;28;20311;-83
2023/09/15 05:05:32;;;;;;;5.22;2.40;;;13.30;99.90;;;;;;10459238;28;20589;-85
2023/09/15 05:10:35;;;;;;;6.20;2.35;;;13.40;99.90;;;;;;10451131;28;20299;-83
2023/09/15 05:15:38;;;;;;;6.30;2.83;;;13.50;99.90;;;;;;10455399;28;21016;-82
2023/09/15 05:20:46;;;;;;;6.13;2.58;;;13.40;99.90;;;;;;10469092;28;20308;-83
2023/09/15 05:25:51;;;;;;;8.65;2.60;;;13.30;99.90;;;;;;10435057;28;20242;-82
2023/09/15 05:30:59;;;;;;;17.15;3.10;;;13.20;99.90;;;;;;10454424;28;20261;-82
2023/09/15 05:36:06;;;;;;;4.10;2.28;;;12.90;99.90;;;;;;10472855;28;20773;-84
2023/09/15 05:41:08;;;;;;;5.78;2.75;;;12.70;99.90;;;;;;10472976;28;20261;-82
2023/09/15 05:46:11;;;;;;;4.78;1.70;;;12.70;99.90;;;;;;10490532;28;21024;-83
2023/09/15 05:51:14;;;;;;;3.25;2.08;;;12.90;99.90;;;;;;10486268;28;20245;-83
2023/09/15 05:56:17;;;;;;;4.43;2.50;;;13.30;99.90;;;;;;10490781;28;20233;-83
2023/09/15 06:01:20;;;;;;;5.80;2.63;;;13.40;99.90;;;;;;10490477;28;20673;-83
2023/09/15 06:06:22;;;;;;;5.63;2.15;;;13.30;99.90;;;;;;10488838;28;20664;-83
2023/09/15 06:11:25;;;;;;;3.38;2.10;;;13.40;99.90;;;;;;10487270;28;20872;-81
2023/09/15 06:16:28;;;;;;;7.05;2.33;;;13.80;99.90;;;;;;10473275;28;20234;-82
2023/09/15 06:21:30;;;;;;;9.90;3.28;;;14.00;99.90;;;;;;10489908;28;20253;-82
2023/09/15 06:26:34;;;;;;;2.95;2.13;;;14.10;99.90;;;;;;10489190;28;20247;-81
2023/09/15 06:31:36;;;;;;;3.35;1.90;;;14.30;99.90;;;;;;10470104;28;20261;-81
2023/09/15 06:36:39;;;;;;;5.43;2.10;;;14.50;99.90;;;;;;10471173;28;20226;-82
2023/09/15 06:41:42;;;;;;;6.00;2.25;;;14.60;99.90;;;;;;10469876;28;20378;-82
2023/09/15 06:46:56;;;;;;;3.90;2.60;;;14.90;99.90;;;;;;10484046;28;20279;-81
2023/09/15 06:51:59;;;;;;;6.28;3.88;;;15.00;99.90;;;;;;10462237;28;20238;-81
2023/09/15 06:57:05;;;;;;;4.30;2.40;;;15.00;99.90;;;;;;10454524;28;20261;-81
2023/09/15 07:02:08;;;;;;;3.03;1.98;;;15.30;99.90;;;;;;10482593;28;20258;-81
2023/09/15 07:07:14;;;;;;;4.97;1.83;;;15.40;99.90;;;;;;10488267;28;20230;-82
2023/09/15 07:12:17;;;;;;;2.95;1.75;;;15.60;99.90;;;;;;10466652;28;20242;-82
2023/09/15 07:17:20;;;;;;;2.10;1.27;;;15.80;99.20;;;;;;10488340;28;20280;-81
2023/09/15 07:22:24;;;;;;;2.33;1.50;;;16.00;96.40;;;;;;10487737;28;20261;-81
2023/09/15 07:27:26;;;;;;;6.82;2.60;;;16.20;96.50;;;;;;10492453;28;20276;-82
2023/09/15 07:32:29;;;;;;;2.20;1.30;;;16.50;96.30;;;;;;10474905;28;20230;-82
2023/09/15 07:37:32;;;;;;;5.00;1.90;;;16.60;99.20;;;;;;10493619;28;20246;-82
2023/09/15 07:42:35;;;;;;;4.05;1.15;;;16.90;99.90;;;;;;10494905;28;20253;-82
2023/09/15 07:47:38;;;;;;;3.65;1.45;;;17.10;98.00;;;;;;10452476;28;20226;-83
2023/09/15 07:52:40;;;;;;;2.28;1.60;;;17.40;99.90;;;;;;10461497;28;20226;-82
2023/09/15 07:57:43;;;;;;;5.00;1.20;;;17.70;99.90;;;;;;10492572;28;20287;-81
2023/09/15 08:02:46;;;;;;;4.60;1.52;;;17.90;99.90;;;;;;10493972;28;20335;-82
2023/09/15 08:07:49;;;;;;;2.13;1.60;;;18.00;99.90;;;;;;10454759;28;20709;-82
2023/09/15 08:12:52;;;;;;;2.20;1.35;;;18.30;99.90;;;;;;10482199;28;20245;-82
2023/09/15 08:17:55;;;;;;;2.60;1.67;;;18.50;99.90;;;;;;10480955;28;20246;-85
2023/09/15 08:22:59;;;;;;;2.88;1.50;;;18.70;99.90;;;;;;10452242;28;20320;-84
2023/09/15 08:28:03;;;;;;;2.15;1.25;;;18.80;99.90;;;;;;10452192;28;20262;-83
2023/09/15 08:33:06;;;;;;;2.58;1.40;;;19.10;99.90;;;;;;10451167;28;20291;-84
2023/09/15 08:38:09;;;;;;;3.55;1.75;;;19.20;99.90;;;;;;10487881;28;20665;-86
2023/09/15 08:43:13;;;;;;;2.40;1.45;;;19.40;99.90;;;;;;10492482;28;20279;-87
2023/09/15 08:48:24;;;;;;;2.22;1.58;;;19.40;99.90;;;;;;10490994;28;20613;-84
2023/09/15 08:53:27;;;;;;;2.70;1.15;;;19.40;99.90;;;;;;10473586;28;20245;-83
2023/09/15 08:58:30;;;;;;;2.17;1.40;;;19.60;99.90;;;;;;10481745;28;20238;-83
2023/09/15 09:03:39;;;;;;;1.70;1.20;;;19.80;99.90;;;;;;10491097;28;20242;-83
2023/09/15 09:08:44;;;;;;;4.18;2.10;;;19.80;99.90;;;;;;10472862;28;20626;-82
2023/09/15 09:13:52;;;;;;;1.40;1.30;;;19.90;99.90;;;;;;10492731;28;20279;-82
2023/09/15 09:18:57;;;;;;;1.70;1.40;;;20.00;99.90;;;;;;10466761;28;20952;-85
2023/09/15 09:24:00;;;;;;;3.75;1.25;;;20.10;99.90;;;;;;10474364;28;20390;-84
2023/09/15 09:29:03;;;;;;;1.95;1.30;;;20.30;99.90;;;;;;10490090;28;20261;-82
2023/09/15 09:34:06;;;;;;;31.08;3.42;;;20.30;99.90;;;;;;10437506;28;20288;-82
2023/09/15 09:39:09;;;;;;;1.75;1.33;;;20.30;99.90;;;;;;10480973;28;20653;-82
2023/09/15 09:44:12;;;;;;;1.88;1.13;;;20.40;99.90;;;;;;10491181;28;20261;-81
2023/09/15 09:49:16;;;;;;;3.83;1.02;;;20.40;99.90;;;;;;10473258;28;20273;-83
2023/09/15 09:54:18;;;;;;;4.20;1.30;;;20.50;99.90;;;;;;10432258;28;20574;-81
2023/09/15 09:59:21;;;;;;;1.60;1.35;;;20.50;99.90;;;;;;10450154;28;20265;-81
2023/09/15 10:04:24;;;;;;;2.38;1.30;;;20.60;99.90;;;;;;10452965;28;20314;-81
2023/09/15 10:09:26;;;;;;;2.90;1.20;;;20.50;99.90;;;;;;10490859;28;20263;-81
2023/09/15 10:14:30;;;;;;;1.13;0.80;;;20.70;99.90;;;;;;10472997;28;20702;-82
2023/09/15 10:19:34;;;;;;;3.33;1.08;;;20.90;99.90;;;;;;10471141;28;20245;-82
2023/09/15 10:24:41;;;;;;;2.50;1.08;;;20.80;99.90;;;;;;10488934;28;20660;-82
2023/09/15 10:29:45;;;;;;;2.65;1.10;;;20.80;99.90;;;;;;10488838;28;20269;-82
2023/09/15 10:34:48;;;;;;;6.55;1.08;;;20.80;99.90;;;;;;10487314;28;20264;-83
2023/09/15 10:39:58;;;;;;;2.45;1.65;;;20.90;99.90;;;;;;10487929;28;20246;-83
2023/09/15 10:45:11;;;;;;;2.65;1.08;;;21.00;99.90;;;;;;10488678;28;20250;-82
2023/09/15 10:50:16;;;;;;;1.65;1.23;;;21.00;99.90;;;;;;10486094;28;20275;-82
2023/09/15 10:55:19;;;;;;;1.80;1.13;;;21.00;99.90;;;;;;10488100;28;20597;-82
2023/09/15 11:00:24;;;;;;;1.90;1.30;;;21.00;99.90;;;;;;10487807;28;20226;-83
2023/09/15 11:05:27;;;;;;;4.97;1.15;;;21.10;99.90;;;;;;10497220;28;20250;-82
2023/09/15 11:10:32;;;;;;;1.50;1.17;;;21.10;99.90;;;;;;10450544;28;20231;-82
2023/09/15 11:15:34;;;;;;;1.83;1.20;;;21.00;99.90;;;;;;10464952;28;20238;-81
2023/09/15 11:20:38;;;;;;;1.20;1.00;;;21.10;99.90;;;;;;10464192;28;20226;-82
2023/09/15 11:25:40;;;;;;;2.00;1.05;;;21.10;99.90;;;;;;10493198;28;20670;-81
2023/09/15 11:30:45;;;;;;;1.60;1.13;;;21.10;99.90;;;;;;10468741;28;20266;-82
2023/09/15 11:35:49;;;;;;;4.60;1.35;;;21.10;99.90;;;;;;10492901;28;20226;-83
2023/09/15 11:40:52;;;;;;;13.98;1.88;;;21.20;99.90;;;;;;10445737;28;20238;-82
2023/09/15 11:45:54;;;;;;;2.85;1.65;;;21.20;99.90;;;;;;10453887;28;20280;-81
2023/09/15 11:50:58;;;;;;;1.42;0.80;;;21.30;99.90;;;;;;10463186;28;20290;-82
2023/09/15 11:56:00;;;;;;;3.42;1.63;;;21.30;99.90;;;;;;10476279;28;20291;-81
2023/09/15 12:01:04;;;;;;;5.15;1.40;;;21.20;99.90;;;;;;10494586;28;20242;-80
2023/09/15 12:06:07;;;;;;;1.85;1.30;;;21.20;99.90;;;;;;10475516;28;20233;-81
2023/09/15 12:11:10;;;;;;;3.75;1.20;;;21.20;99.90;;;;;;10476015;28;20238;-82
2023/09/15 12:16:19;;;;;;;1.55;1.00;;;21.30;99.90;;;;;;10493669;28;20237;-81
2023/09/15 12:21:25;;;;;;;3.22;1.98;;;21.30;99.90;;;;;;10493462;28;20246;-81
2023/09/15 12:26:27;;;;;;;3.95;1.83;;;21.20;99.90;;;;;;10493693;28;20291;-81
2023/09/15 12:31:44;;;;;;;2.08;1.25;;;21.30;99.90;;;;;;10488110;28;20311;-81
2023/09/15 12:36:48;;;;;;;10.82;1.40;;;21.50;99.90;;;;;;10482755;28;20687;-81
2023/09/15 12:42:04;;;;;;;3.75;1.80;;;21.40;99.90;;;;;;10471744;28;20287;-81
2023/09/15 12:47:16;;;;;;;5.97;1.40;;;21.50;99.90;;;;;;10474285;28;20230;-81
2023/09/15 12:52:19;;;;;;;4.28;1.67;;;21.50;99.90;;;;;;10493141;28;20246;-81
2023/09/15 12:57:22;;;;;;;1.50;1.02;;;21.50;99.90;;;;;;10472941;28;20280;-80
2023/09/15 13:02:25;;;;;;;1.83;1.27;;;21.50;99.90;;;;;;10472744;28;20249;-81
2023/09/15 13:07:28;;;;;;;7.85;1.95;;;21.60;99.90;;;;;;10491409;28;20234;-83
2023/09/15 13:12:31;;;;;;;1.95;1.30;;;21.60;99.90;;;;;;10475163;28;20238;-81
2023/09/15 13:17:34;;;;;;;1.98;1.20;;;21.60;99.90;;;;;;10491282;28;20257;-82
2023/09/15 13:22:37;;;;;;;4.28;1.75;;;21.50;99.90;;;;;;10490431;28;20266;-82
2023/09/15 13:27:44;;;;;;;2.70;1.33;;;21.60;99.90;;;;;;10487483;28;20257;-83
2023/09/15 13:32:47;;;;;;;5.80;2.05;;;21.50;99.90;;;;;;10458514;28;20235;-83
2023/09/15 13:37:50;;;;;;;2.33;1.27;;;21.70;99.90;;;;;;10488348;28;20322;-80
2023/09/15 13:42:52;;;;;;;1.42;1.10;;;21.80;99.90;;;;;;10491653;28;20723;-79
2023/09/15 13:47:56;;;;;;;6.30;1.98;;;21.70;99.90;;;;;;10463916;28;20280;-81
2023/09/15 13:52:59;;;;;;;3.35;1.10;;;21.80;99.90;;;;;;10449274;28;20238;-81
2023/09/15 13:58:03;;;;;;;1.10;0.85;;;21.90;99.90;;;;;;10449485;28;20291;-80
2023/09/15 14:03:06;;;;;;;1.08;0.93;;;21.80;99.90;;;;;;10435896;28;20254;-80
2023/09/15 14:08:08;;;;;;;4.68;1.58;;;21.80;99.90;;;;;;10409490;28;20239;-82
2023/09/15 14:13:14;;;;;;;7.57;1.52;;;22.00;99.90;;;;;;10416412;28;20227;-82
2023/09/15 14:18:17;;;;;;;4.95;1.30;;;22.00;99.90;;;;;;10427216;28;20274;-81
2023/09/15 14:23:19;;;;;;;3.83;1.70;;;22.00;99.90;;;;;;10436693;28;20254;-80
2023/09/15 14:28:23;;;;;;;5.65;1.52;;;22.00;99.90;;;;;;10457786;28;20296;-80
2023/09/15 14:33:25;;;;;;;4.03;1.58;;;22.00;99.90;;;;;;10489129;28;20237;-80
2023/09/15 14:38:28;;;;;;;3.17;1.38;;;22.10;99.90;;;;;;10463664;28;20234;-80
2023/09/15 14:43:30;;;;;;;4.95;1.17;;;22.10;99.90;;;;;;10456672;28;20258;-80
2023/09/15 14:48:33;;;;;;;3.08;1.35;;;22.00;99.90;;;;;;10457235;28;20304;-80
2023/09/15 14:53:36;;;;;;;4.60;1.27;;;21.90;99.90;;;;;;10460732;28;20292;-79
2023/09/15 14:58:41;;;;;;;6.38;1.63;;;21.90;99.90;;;;;;10483321;28;20237;-79
2023/09/15 15:03:44;;;;;;;4.93;1.23;;;22.00;99.90;;;;;;10496781;28;20705;-80
2023/09/15 15:08:47;;;;;;;2.80;1.10;;;22.00;99.90;;;;;;10466441;28;20271;-79
2023/09/15 15:13:50;;;;;;;3.33;1.40;;;22.00;99.90;;;;;;10497759;28;20206;-80
2023/09/15 15:18:53;;;;;;;4.95;1.27;;;22.10;99.90;;;;;;10478038;28;20624;-80
2023/09/15 15:24:07;;;;;;;4.90;1.20;;;22.10;99.90;;;;;;10493645;28;20246;-81
2023/09/15 15:29:09;;;;;;;2.15;1.08;;;21.90;99.90;;;;;;10482481;28;20265;-82
2023/09/15 15:34:12;;;;;;;5.70;1.08;;;21.70;99.90;;;;;;10448300;28;20303;-82
2023/09/15 15:39:15;;;;;;;4.63;1.27;;;21.70;99.90;;;;;;10472974;28;20246;-82
2023/09/15 15:44:20;;;;;;;2.38;1.10;;;21.70;99.90;;;;;;10450579;28;20707;-82
2023/09/15 15:49:23;;;;;;;6.03;1.33;;;21.80;99.90;;;;;;10466254;28;20913;-81
2023/09/15 15:54:27;;;;;;;4.38;1.02;;;21.70;99.90;;;;;;10468524;28;20235;-81
2023/09/15 15:59:32;;;;;;;5.65;1.48;;;21.70;99.90;;;;;;10457733;28;20234;-80
2023/09/15 16:04:36;;;;;;;4.80;1.00;;;21.70;99.90;;;;;;10463204;28;20222;-81
2023/09/15 16:09:38;;;;;;;1.30;0.82;;;21.50;99.90;;;;;;10445906;28;20573;-81
2023/09/15 16:14:41;;;;;;;4.78;1.13;;;21.30;99.90;;;;;;10439861;28;20563;-80
2023/09/15 16:19:44;;;;;;;5.90;0.93;;;20.90;99.90;;;;;;10457566;28;20249;-80
2023/09/15 16:24:46;;;;;;;2.75;1.30;;;20.40;99.90;;;;;;10457180;28;20223;-81
2023/09/15 16:29:49;;;;;;;4.15;1.50;;;20.00;99.90;;;;;;10449646;28;20271;-81
2023/09/15 16:34:53;;;;;;;5.72;1.58;;;19.60;99.90;;;;;;10490689;28;20257;-81
2023/09/15 16:39:55;;;;;;;7.28;1.30;;;19.30;99.90;;;;;;10471832;28;20339;-83
2023/09/15 16:44:58;;;;;;;7.10;1.30;;;19.00;99.90;;;;;;10501882;28;20217;-84
2023/09/15 16:50:04;;;;;;;13.30;1.88;;;18.30;99.90;;;;;;10481120;28;20210;-84
2023/09/15 16:55:09;;;;;;;9.52;1.98;;;17.60;99.90;;;;;;10497799;28;20248;-82
2023/09/15 17:00:13;;;;;;;9.48;1.40;;;17.10;99.90;;;;;;10450284;28;20199;-82
2023/09/15 17:05:16;;;;;;;12.98;2.72;;;16.60;99.90;;;;;;10455553;28;20276;-82
2023/09/15 17:10:18;;;;;;;9.63;2.53;;;16.20;99.90;;;;;;10449969;28;20208;-82
2023/09/15 17:15:21;;;;;;;5.40;1.85;;;15.90;99.90;;;;;;10436752;28;20248;-82
2023/09/15 17:20:23;;;;;;;7.15;1.38;;;16.10;99.90;;;;;;10452649;28;20253;-83
2023/09/15 17:25:26;;;;;;;10.43;1.75;;;16.20;99.90;;;;;;10448809;28;20255;-82
2023/09/15 17:30:28;;;;;;;8.00;2.00;;;16.30;99.90;;;;;;10439107;28;20235;-82
2023/09/15 17:35:31;;;;;;;8.95;2.30;;;15.50;99.90;;;;;;10460345;28;20195;-82
2023/09/15 17:40:33;;;;;;;19.15;3.10;;;15.00;76.50;;;;;;10478651;28;20244;-82
2023/09/15 17:45:36;;;;;;;17.00;3.88;;;14.50;77.80;;;;;;10481819;28;20219;-81
2023/09/15 17:50:39;;;;;;;24.83;3.42;;;14.10;87.30;;;;;;10492914;28;20252;-82
2023/09/15 17:55:41;;;;;;;22.98;4.90;;;14.00;92.30;;;;;;10455028;28;20215;-82
2023/09/15 18:00:44;;;;;;;12.68;3.67;;;;;;;;;;10126114;28;9999899;-83
2023/09/15 18:05:47;;;;;;;24.08;3.65;;;13.40;95.40;;;;;;10475994;28;20275;-82
2023/09/15 18:10:49;;;;;;;23.85;4.35;;;13.30;97.00;;;;;;10484247;28;20211;-82
2023/09/15 18:15:52;;;;;;;20.48;4.05;;;;;;;;;;10455435;28;20255;-83
2023/09/15 18:20:58;;;;;;;39.70;9.85;;;;;;;;;;10493419;28;20207;-82
2023/09/15 18:26:00;;;;;;;51.30;18.10;;;12.50;99.90;;;;;;10493477;28;20399;-82
2023/09/15 18:31:03;;;;;;;19.75;8.77;;;;;;;;;;10439924;28;20227;-82
2023/09/15 18:36:07;;;;;;;20.50;5.53;;;12.30;99.90;;;;;;10393935;28;20223;-82
2023/09/15 18:41:11;;;;;;;24.20;5.53;;;12.50;99.90;;;;;;10410368;28;20261;-82
2023/09/15 18:46:14;;;;;;;13.73;8.10;;;12.20;99.90;;;;;;10404926;28;20280;-82
2023/09/15 18:51:16;;;;;;;21.38;6.97;;;12.10;99.90;;;;;;10449397;28;20199;-83
2023/09/15 18:56:19;;;;;;;9.75;5.30;;;12.00;99.90;;;;;;10417162;28;20726;-83
2023/09/15 19:01:23;;;;;;;19.73;4.95;;;12.00;99.90;;;;;;10444081;28;20203;-83
2023/09/15 19:06:26;;;;;;;15.68;6.47;;;11.90;99.90;;;;;;10452959;28;20215;-83
2023/09/15 19:11:29;;;;;;;9.05;3.92;;;11.80;99.90;;;;;;10440866;28;20274;-82
2023/09/15 19:16:32;;;;;;;15.60;4.28;;;11.60;99.90;;;;;;10440342;28;20229;-84
2023/09/15 19:21:35;;;;;;;15.30;3.97;;;11.50;99.90;;;;;;10453798;28;20195;-83
2023/09/15 19:26:38;;;;;;;7.75;3.47;;;11.40;99.90;;;;;;10429773;28;20219;-82
2023/09/15 19:31:41;;;;;;;6.95;3.58;;;11.20;99.90;;;;;;10418996;28;20231;-83
2023/09/15 19:36:44;;;;;;;11.68;3.88;;;11.10;99.90;;;;;;10418369;28;20208;-83
2023/09/15 19:41:46;;;;;;;7.78;3.80;;;11.00;99.90;;;;;;10433622;28;20203;-84
2023/09/15 19:46:49;;;;;;;6.80;3.17;;;10.90;99.90;;;;;;10421221;28;20219;-83
2023/09/15 19:51:52;;;;;;;10.95;3.65;;;10.70;99.90;;;;;;10436785;28;20891;-82
2023/09/15 19:56:54;;;;;;;3.80;2.78;;;10.60;99.90;;;;;;10422047;28;20266;-83
2023/09/15 20:01:57;;;;;;;4.10;2.67;;;10.50;99.90;;;;;;10439304;28;20204;-83
2023/09/15 20:06:59;;;;;;;4.43;2.63;;;10.40;99.90;;;;;;10461029;28;20268;-83
2023/09/15 20:12:04;;;;;;;6.17;3.37;;;10.30;99.90;;;;;;10438866;28;20192;-83
2023/09/15 20:17:06;;;;;;;6.47;4.27;;;10.20;99.90;;;;;;10426419;28;20266;-83
2023/09/15 20:22:09;;;;;;;11.67;6.33;;;10.10;99.90;;;;;;10441107;28;20215;-83
2023/09/15 20:27:11;;;;;;;9.75;6.40;;;10.10;99.90;;;;;;10426749;28;20242;-83
2023/09/15 20:32:14;;;;;;;17.10;6.17;;;10.20;99.90;;;;;;10428037;28;20255;-83
2023/09/15 20:37:17;;;;;;;9.50;5.55;;;10.20;99.90;;;;;;10423917;28;20539;-83
2023/09/15 20:42:20;;;;;;;10.93;5.15;;;10.20;99.90;;;;;;10433067;28;20203;-83
2023/09/15 20:47:23;;;;;;;8.65;5.00;;;10.30;99.90;;;;;;10427246;28;20265;-82
2023/09/15 20:52:26;;;;;;;8.48;4.95;;;10.30;99.90;;;;;;10419900;28;20546;-83
2023/09/15 20:57:31;;;;;;;7.27;4.90;;;10.30;99.90;;;;;;10419387;28;20266;-82
2023/09/15 21:02:35;;;;;;;6.30;3.73;;;10.30;99.90;;;;;;10417984;28;20212;-82
2023/09/15 21:07:39;;;;;;;7.40;4.00;;;10.30;99.90;;;;;;10417140;28;20236;-82
2023/09/15 21:12:41;;;;;;;6.80;4.20;;;10.30;99.90;;;;;;10426100;28;20230;-81
2023/09/15 21:17:46;;;;;;;12.40;3.80;;;10.20;99.90;;;;;;10086552;28;10000015;-84
2023/09/15 21:22:50;;;;;;;11.27;5.20;;;10.20;99.90;;;;;;10428909;28;20687;-83
2023/09/15 21:27:53;;;;;;;9.73;5.53;;;10.20;99.90;;;;;;10412559;28;20259;-83
2023/09/15 21:32:55;;;;;;;8.38;4.82;;;10.10;99.90;;;;;;10447889;28;20573;-81
2023/09/15 21:38:01;;;;;;;6.07;4.53;;;10.10;99.90;;;;;;10450673;28;20751;-82
2023/09/15 21:43:07;;;;;;;8.63;4.07;;;10.10;99.90;;;;;;10433988;28;20762;-82
2023/09/15 21:48:10;;;;;;;4.95;3.67;;;10.00;99.90;;;;;;10447785;28;20226;-83
2023/09/15 21:53:13;;;;;;;7.10;4.40;;;10.00;99.90;;;;;;10442132;28;20273;-82
2023/09/15 21:58:16;;;;;;;9.98;4.32;;;10.00;99.90;;;;;;10449245;28;20199;-82
2023/09/15 22:03:19;;;;;;;6.07;3.88;;;10.00;99.90;;;;;;10453434;28;20195;-83
2023/09/15 22:08:22;;;;;;;9.17;3.50;;;10.00;99.90;;;;;;10487110;28;20199;-82
2023/09/15 22:13:25;;;;;;;5.55;2.97;;;10.10;99.90;;;;;;10487958;28;20188;-82
2023/09/15 22:18:27;;;;;;;3.95;3.17;;;10.30;99.90;;;;;;10461925;28;20266;-79
2023/09/15 22:23:34;;;;;;;5.30;3.08;;;10.40;99.90;;;;;;10453910;28;20257;-80
2023/09/15 22:28:36;;;;;;;5.60;3.38;;;10.60;99.90;;;;;;10456505;28;20242;-80
2023/09/15 22:33:41;;;;;;;4.68;3.38;;;10.80;99.90;;;;;;10458995;28;20195;-81
2023/09/15 22:38:44;;;;;;;5.85;3.78;;;11.00;99.90;;;;;;10459004;28;20265;-80
2023/09/15 22:43:47;;;;;;;6.05;3.78;;;11.10;99.90;;;;;;10430567;28;20223;-80
2023/09/15 22:48:52;;;;;;;6.55;3.03;;;11.20;99.90;;;;;;10456382;28;20199;-80
2023/09/15 22:53:55;;;;;;;8.07;3.38;;;11.20;99.90;;;;;;10459094;28;20265;-80
2023/09/15 22:58:58;;;;;;;4.80;3.35;;;11.20;99.90;;;;;;10451509;28;20559;-80
2023/09/15 23:04:00;;;;;;;6.53;3.60;;;11.20;99.90;;;;;;10423529;28;20277;-81
2023/09/15 23:09:04;;;;;;;6.50;3.70;;;11.00;99.90;;;;;;10429647;28;20615;-80
2023/09/15 23:14:07;;;;;;;4.77;3.10;;;11.00;99.90;;;;;;10464163;28;20272;-80
2023/09/15 23:19:10;;;;;;;5.60;3.97;;;10.90;99.90;;;;;;10465092;28;20602;-80
2023/09/15 23:24:13;;;;;;;6.00;3.87;;;11.00;99.90;;;;;;10463237;28;20222;-81
2023/09/15 23:29:15;;;;;;;4.03;3.63;;;11.10;99.90;;;;;;10464018;28;20277;-80
2023/09/15 23:34:18;;;;;;;5.03;3.33;;;11.10;99.90;;;;;;10464472;28;20203;-80
2023/09/15 23:39:20;;;;;;;7.88;3.38;;;11.00;99.90;;;;;;10439985;28;20215;-79
2023/09/15 23:44:23;;;;;;;8.95;3.90;;;11.00;99.90;;;;;;10421178;28;20231;-83
2023/09/15 23:49:25;;;;;;;5.43;3.50;;;10.90;99.90;;;;;;10423503;28;20195;-81
2023/09/15 23:54:28;;;;;;;6.03;3.63;;;11.00;99.90;;;;;;10419949;28;20624;-80
2023/09/15 23:59:31;;;;;;;5.32;3.63;;;11.00;99.90;;;;;;10422572;28;20200;-80
